sensor_id;sensor_type;location;lat;lon;timestamp;P1;durP1;ratioP1;P2;durP2;ratioP2
11008;SDS011;5557;51.670;7.788;2023-03-23T00:01:32;3.27;;;3.07;;
11008;SDS011;5557;51.670;7.788;2023-03-23T00:04:02;3.27;;;3.00;;
11008;SDS011;5557;51.670;7.788;2023-03-23T00:06:28;3.13;;;2.93;;
11008;SDS011;5557;51.670;7.788;2023-03-23T00:08:58;7.40;;;3.30;;
11008;SDS011;5557;51.670;7.788;2023-03-23T00:11:29;3.73;;;3.50;;
11008;SDS011;5557;51.670;7.788;2023-03-23T00:13:57;3.87;;;3.60;;
11008;SDS011;5557;51.670;7.788;2023-03-23T00:16:26;3.23;;;2.80;;
11008;SDS011;5557;51.670;7.788;2023-03-23T00:18:56;3.03;;;2.80;;
11008;SDS011;5557;51.670;7.788;2023-03-23T00:21:34;8.23;;;3.60;;
11008;SDS011;5557;51.670;7.788;2023-03-23T00:24:08;2.87;;;2.77;;
11008;SDS011;5557;51.670;7.788;2023-03-23T00:26:36;3.60;;;3.07;;
11008;SDS011;5557;51.670;7.788;2023-03-23T00:29:06;3.37;;;3.17;;
11008;SDS011;5557;51.670;7.788;2023-03-23T00:31:35;2.87;;;2.67;;
11008;SDS011;5557;51.670;7.788;2023-03-23T00:34:03;7.73;;;3.00;;
11008;SDS011;5557;51.670;7.788;2023-03-23T00:36:30;3.50;;;3.27;;
11008;SDS011;5557;51.670;7.788;2023-03-23T00:38:58;7.73;;;3.53;;
11008;SDS011;5557;51.670;7.788;2023-03-23T00:41:24;2.83;;;2.43;;
11008;SDS011;5557;51.670;7.788;2023-03-23T00:43:54;3.27;;;3.07;;
11008;SDS011;5557;51.670;7.788;2023-03-23T00:46:21;4.60;;;2.53;;
11008;SDS011;5557;51.670;7.788;2023-03-23T00:48:47;4.27;;;3.90;;
11008;SDS011;5557;51.670;7.788;2023-03-23T00:51:15;2.93;;;2.77;;
11008;SDS011;5557;51.670;7.788;2023-03-23T00:53:44;3.50;;;3.30;;
11008;SDS011;5557;51.670;7.788;2023-03-23T00:56:11;2.80;;;2.60;;
11008;SDS011;5557;51.670;7.788;2023-03-23T00:58:37;4.60;;;2.80;;
11008;SDS011;5557;51.670;7.788;2023-03-23T01:01:03;3.07;;;2.97;;
11008;SDS011;5557;51.670;7.788;2023-03-23T01:03:29;2.53;;;2.43;;
11008;SDS011;5557;51.670;7.788;2023-03-23T01:05:55;5.63;;;2.90;;
11008;SDS011;5557;51.670;7.788;2023-03-23T01:08:22;2.90;;;2.00;;
11008;SDS011;5557;51.670;7.788;2023-03-23T01:10:49;3.20;;;2.57;;
11008;SDS011;5557;51.670;7.788;2023-03-23T01:13:16;3.30;;;2.37;;
11008;SDS011;5557;51.670;7.788;2023-03-23T01:15:42;3.80;;;2.50;;
11008;SDS011;5557;51.670;7.788;2023-03-23T01:18:08;2.67;;;2.47;;
11008;SDS011;5557;51.670;7.788;2023-03-23T01:20:34;3.20;;;2.27;;
11008;SDS011;5557;51.670;7.788;2023-03-23T01:23:01;2.90;;;2.33;;
11008;SDS011;5557;51.670;7.788;2023-03-23T01:25:28;3.73;;;2.70;;
11008;SDS011;5557;51.670;7.788;2023-03-23T01:27:55;2.90;;;2.70;;
11008;SDS011;5557;51.670;7.788;2023-03-23T01:30:21;2.60;;;2.40;;
11008;SDS011;5557;51.670;7.788;2023-03-23T01:32:47;2.73;;;2.20;;
11008;SDS011;5557;51.670;7.788;2023-03-23T01:35:13;3.40;;;2.70;;
11008;SDS011;5557;51.670;7.788;2023-03-23T01:37:39;2.20;;;2.10;;
11008;SDS011;5557;51.670;7.788;2023-03-23T01:40:05;4.87;;;2.97;;
11008;SDS011;5557;51.670;7.788;2023-03-23T01:42:33;3.40;;;2.43;;
11008;SDS011;5557;51.670;7.788;2023-03-23T01:48:28;2.90;;;2.70;;
11008;SDS011;5557;51.670;7.788;2023-03-23T01:51:09;2.40;;;2.30;;
11008;SDS011;5557;51.670;7.788;2023-03-23T01:54:01;2.47;;;2.37;;
11008;SDS011;5557;51.670;7.788;2023-03-23T01:56:31;3.30;;;2.03;;
11008;SDS011;5557;51.670;7.788;2023-03-23T01:59:03;3.03;;;2.87;;
11008;SDS011;5557;51.670;7.788;2023-03-23T02:01:29;3.43;;;2.33;;
11008;SDS011;5557;51.670;7.788;2023-03-23T02:03:55;6.60;;;2.10;;
11008;SDS011;5557;51.670;7.788;2023-03-23T02:06:23;3.00;;;2.70;;
11008;SDS011;5557;51.670;7.788;2023-03-23T02:08:49;2.53;;;2.43;;
11008;SDS011;5557;51.670;7.788;2023-03-23T02:11:17;4.20;;;2.10;;
11008;SDS011;5557;51.670;7.788;2023-03-23T02:13:45;3.77;;;2.00;;
11008;SDS011;5557;51.670;7.788;2023-03-23T02:31:23;2.30;;;2.20;;
11008;SDS011;5557;51.670;7.788;2023-03-23T02:34:11;2.17;;;2.07;;
11008;SDS011;5557;51.670;7.788;2023-03-23T02:39:29;2.13;;;1.70;;
11008;SDS011;5557;51.670;7.788;2023-03-23T02:42:05;1.67;;;1.57;;
11008;SDS011;5557;51.670;7.788;2023-03-23T02:44:34;1.90;;;1.63;;
11008;SDS011;5557;51.670;7.788;2023-03-23T02:47:04;5.83;;;1.80;;
11008;SDS011;5557;51.670;7.788;2023-03-23T02:49:34;2.17;;;1.70;;
11008;SDS011;5557;51.670;7.788;2023-03-23T02:52:14;1.47;;;1.37;;
11008;SDS011;5557;51.670;7.788;2023-03-23T02:54:44;1.97;;;1.87;;
11008;SDS011;5557;51.670;7.788;2023-03-23T02:57:13;1.70;;;1.60;;
11008;SDS011;5557;51.670;7.788;2023-03-23T02:59:39;3.47;;;2.57;;
11008;SDS011;5557;51.670;7.788;2023-03-23T03:04:52;2.23;;;1.80;;
11008;SDS011;5557;51.670;7.788;2023-03-23T03:07:30;3.77;;;2.10;;
11008;SDS011;5557;51.670;7.788;2023-03-23T03:13:05;1.80;;;1.70;;
11008;SDS011;5557;51.670;7.788;2023-03-23T03:15:42;3.70;;;2.20;;
11008;SDS011;5557;51.670;7.788;2023-03-23T03:18:39;2.60;;;2.00;;
11008;SDS011;5557;51.670;7.788;2023-03-23T03:21:12;3.23;;;1.97;;
11008;SDS011;5557;51.670;7.788;2023-03-23T03:23:40;2.80;;;2.13;;
11008;SDS011;5557;51.670;7.788;2023-03-23T03:26:10;3.20;;;2.10;;
11008;SDS011;5557;51.670;7.788;2023-03-23T03:28:37;1.73;;;1.63;;
11008;SDS011;5557;51.670;7.788;2023-03-23T03:31:04;2.00;;;1.80;;
11008;SDS011;5557;51.670;7.788;2023-03-23T03:33:31;3.20;;;1.97;;
11008;SDS011;5557;51.670;7.788;2023-03-23T03:36:02;1.93;;;1.83;;
11008;SDS011;5557;51.670;7.788;2023-03-23T03:38:29;3.67;;;2.03;;
11008;SDS011;5557;51.670;7.788;2023-03-23T03:41:05;2.10;;;1.90;;
11008;SDS011;5557;51.670;7.788;2023-03-23T03:43:31;2.17;;;2.07;;
11008;SDS011;5557;51.670;7.788;2023-03-23T03:45:56;2.17;;;1.97;;
11008;SDS011;5557;51.670;7.788;2023-03-23T03:48:22;1.67;;;1.57;;
11008;SDS011;5557;51.670;7.788;2023-03-23T03:50:48;1.87;;;1.77;;
11008;SDS011;5557;51.670;7.788;2023-03-23T03:53:15;3.87;;;1.70;;
11008;SDS011;5557;51.670;7.788;2023-03-23T03:55:41;2.33;;;2.13;;
11008;SDS011;5557;51.670;7.788;2023-03-23T03:58:10;1.90;;;1.80;;
11008;SDS011;5557;51.670;7.788;2023-03-23T04:00:36;2.27;;;1.97;;
11008;SDS011;5557;51.670;7.788;2023-03-23T04:03:02;2.17;;;2.07;;
11008;SDS011;5557;51.670;7.788;2023-03-23T04:05:28;2.53;;;2.33;;
11008;SDS011;5557;51.670;7.788;2023-03-23T04:07:54;2.97;;;1.90;;
11008;SDS011;5557;51.670;7.788;2023-03-23T04:10:26;2.43;;;2.23;;
11008;SDS011;5557;51.670;7.788;2023-03-23T04:12:52;2.27;;;2.17;;
11008;SDS011;5557;51.670;7.788;2023-03-23T04:15:18;1.67;;;1.57;;
11008;SDS011;5557;51.670;7.788;2023-03-23T04:17:44;2.97;;;2.07;;
11008;SDS011;5557;51.670;7.788;2023-03-23T04:20:10;1.90;;;1.80;;
11008;SDS011;5557;51.670;7.788;2023-03-23T04:22:43;2.20;;;2.10;;
11008;SDS011;5557;51.670;7.788;2023-03-23T04:25:10;1.60;;;1.50;;
11008;SDS011;5557;51.670;7.788;2023-03-23T04:27:37;1.83;;;1.73;;
11008;SDS011;5557;51.670;7.788;2023-03-23T04:30:05;1.50;;;1.40;;
11008;SDS011;5557;51.670;7.788;2023-03-23T04:32:31;1.93;;;1.83;;
11008;SDS011;5557;51.670;7.788;2023-03-23T04:34:57;1.90;;;1.77;;
11008;SDS011;5557;51.670;7.788;2023-03-23T04:37:25;1.90;;;1.80;;
11008;SDS011;5557;51.670;7.788;2023-03-23T04:39:57;1.73;;;1.63;;
11008;SDS011;5557;51.670;7.788;2023-03-23T04:42:27;1.43;;;1.30;;
11008;SDS011;5557;51.670;7.788;2023-03-23T04:44:54;1.67;;;1.57;;
11008;SDS011;5557;51.670;7.788;2023-03-23T04:47:20;2.50;;;2.20;;
11008;SDS011;5557;51.670;7.788;2023-03-23T04:49:46;1.50;;;1.40;;
11008;SDS011;5557;51.670;7.788;2023-03-23T04:52:12;1.87;;;1.60;;
11008;SDS011;5557;51.670;7.788;2023-03-23T04:54:39;1.37;;;1.27;;
11008;SDS011;5557;51.670;7.788;2023-03-23T04:57:05;4.73;;;2.00;;
11008;SDS011;5557;51.670;7.788;2023-03-23T04:59:33;2.10;;;1.90;;
11008;SDS011;5557;51.670;7.788;2023-03-23T05:01:59;1.63;;;1.47;;
11008;SDS011;5557;51.670;7.788;2023-03-23T05:04:25;1.60;;;1.40;;
11008;SDS011;5557;51.670;7.788;2023-03-23T05:06:51;2.53;;;1.43;;
11008;SDS011;5557;51.670;7.788;2023-03-23T05:09:17;1.80;;;1.70;;
11008;SDS011;5557;51.670;7.788;2023-03-23T05:11:43;2.03;;;1.70;;
11008;SDS011;5557;51.670;7.788;2023-03-23T05:14:09;2.23;;;1.30;;
11008;SDS011;5557;51.670;7.788;2023-03-23T05:16:35;1.77;;;1.67;;
11008;SDS011;5557;51.670;7.788;2023-03-23T05:19:02;1.50;;;1.40;;
11008;SDS011;5557;51.670;7.788;2023-03-23T05:21:30;1.70;;;1.60;;
11008;SDS011;5557;51.670;7.788;2023-03-23T05:23:56;1.50;;;1.40;;
11008;SDS011;5557;51.670;7.788;2023-03-23T05:26:26;1.80;;;1.70;;
11008;SDS011;5557;51.670;7.788;2023-03-23T05:28:54;4.70;;;2.77;;
11008;SDS011;5557;51.670;7.788;2023-03-23T05:31:21;1.97;;;1.80;;
11008;SDS011;5557;51.670;7.788;2023-03-23T05:33:48;6.37;;;1.80;;
11008;SDS011;5557;51.670;7.788;2023-03-23T05:36:13;1.63;;;1.53;;
11008;SDS011;5557;51.670;7.788;2023-03-23T05:38:39;1.80;;;1.70;;
11008;SDS011;5557;51.670;7.788;2023-03-23T05:41:10;2.40;;;1.40;;
11008;SDS011;5557;51.670;7.788;2023-03-23T05:43:37;1.50;;;1.40;;
11008;SDS011;5557;51.670;7.788;2023-03-23T05:46:03;1.30;;;1.20;;
11008;SDS011;5557;51.670;7.788;2023-03-23T05:48:29;1.67;;;1.57;;
11008;SDS011;5557;51.670;7.788;2023-03-23T05:50:54;3.10;;;1.40;;
11008;SDS011;5557;51.670;7.788;2023-03-23T05:53:21;1.93;;;1.60;;
11008;SDS011;5557;51.670;7.788;2023-03-23T05:55:48;3.83;;;1.60;;
11008;SDS011;5557;51.670;7.788;2023-03-23T05:58:14;1.67;;;1.57;;
11008;SDS011;5557;51.670;7.788;2023-03-23T06:00:39;7.83;;;1.67;;
11008;SDS011;5557;51.670;7.788;2023-03-23T06:03:05;1.60;;;1.50;;
11008;SDS011;5557;51.670;7.788;2023-03-23T06:05:31;1.70;;;1.57;;
11008;SDS011;5557;51.670;7.788;2023-03-23T06:07:57;3.83;;;2.40;;
11008;SDS011;5557;51.670;7.788;2023-03-23T06:10:24;2.07;;;1.97;;
11008;SDS011;5557;51.670;7.788;2023-03-23T06:12:50;3.50;;;1.83;;
11008;SDS011;5557;51.670;7.788;2023-03-23T06:15:17;1.73;;;1.40;;
11008;SDS011;5557;51.670;7.788;2023-03-23T06:17:43;1.87;;;1.77;;
11008;SDS011;5557;51.670;7.788;2023-03-23T06:20:09;1.97;;;1.53;;
11008;SDS011;5557;51.670;7.788;2023-03-23T06:22:36;1.80;;;1.70;;
11008;SDS011;5557;51.670;7.788;2023-03-23T06:25:03;1.63;;;1.53;;
11008;SDS011;5557;51.670;7.788;2023-03-23T06:27:30;1.70;;;1.60;;
11008;SDS011;5557;51.670;7.788;2023-03-23T06:29:56;2.33;;;2.07;;
11008;SDS011;5557;51.670;7.788;2023-03-23T06:32:22;1.67;;;1.57;;
11008;SDS011;5557;51.670;7.788;2023-03-23T06:34:51;2.33;;;2.13;;
11008;SDS011;5557;51.670;7.788;2023-03-23T06:37:17;1.80;;;1.70;;
11008;SDS011;5557;51.670;7.788;2023-03-23T06:39:43;2.57;;;2.37;;
11008;SDS011;5557;51.670;7.788;2023-03-23T06:42:09;2.30;;;2.03;;
11008;SDS011;5557;51.670;7.788;2023-03-23T06:44:38;1.87;;;1.77;;
11008;SDS011;5557;51.670;7.788;2023-03-23T06:47:04;2.50;;;2.00;;
11008;SDS011;5557;51.670;7.788;2023-03-23T06:49:30;3.10;;;2.30;;
11008;SDS011;5557;51.670;7.788;2023-03-23T06:51:57;4.03;;;2.17;;
11008;SDS011;5557;51.670;7.788;2023-03-23T06:54:25;3.03;;;2.33;;
11008;SDS011;5557;51.670;7.788;2023-03-23T06:56:51;2.17;;;2.07;;
11008;SDS011;5557;51.670;7.788;2023-03-23T06:59:17;4.20;;;2.37;;
11008;SDS011;5557;51.670;7.788;2023-03-23T07:01:42;4.07;;;2.00;;
11008;SDS011;5557;51.670;7.788;2023-03-23T07:04:08;3.00;;;2.37;;
11008;SDS011;5557;51.670;7.788;2023-03-23T07:06:34;4.00;;;2.20;;
11008;SDS011;5557;51.670;7.788;2023-03-23T07:09:00;3.37;;;2.43;;
11008;SDS011;5557;51.670;7.788;2023-03-23T07:11:26;2.43;;;2.23;;
11008;SDS011;5557;51.670;7.788;2023-03-23T07:13:52;2.40;;;2.20;;
11008;SDS011;5557;51.670;7.788;2023-03-23T07:16:18;2.20;;;1.93;;
11008;SDS011;5557;51.670;7.788;2023-03-23T07:18:43;2.17;;;1.97;;
11008;SDS011;5557;51.670;7.788;2023-03-23T07:21:09;4.30;;;1.90;;
11008;SDS011;5557;51.670;7.788;2023-03-23T07:23:35;2.97;;;1.80;;
11008;SDS011;5557;51.670;7.788;2023-03-23T07:26:02;3.30;;;2.20;;
11008;SDS011;5557;51.670;7.788;2023-03-23T07:28:28;3.47;;;2.60;;
11008;SDS011;5557;51.670;7.788;2023-03-23T07:30:54;2.80;;;2.13;;
11008;SDS011;5557;51.670;7.788;2023-03-23T07:33:20;2.70;;;2.23;;
11008;SDS011;5557;51.670;7.788;2023-03-23T07:35:47;3.97;;;2.13;;
11008;SDS011;5557;51.670;7.788;2023-03-23T07:38:13;4.80;;;2.10;;
11008;SDS011;5557;51.670;7.788;2023-03-23T07:40:39;2.70;;;2.03;;
11008;SDS011;5557;51.670;7.788;2023-03-23T07:43:05;2.27;;;1.97;;
11008;SDS011;5557;51.670;7.788;2023-03-23T07:45:32;4.80;;;1.90;;
11008;SDS011;5557;51.670;7.788;2023-03-23T07:47:58;2.60;;;2.17;;
11008;SDS011;5557;51.670;7.788;2023-03-23T07:50:25;2.30;;;2.10;;
11008;SDS011;5557;51.670;7.788;2023-03-23T07:52:53;1.97;;;1.50;;
11008;SDS011;5557;51.670;7.788;2023-03-23T07:55:20;1.43;;;1.33;;
11008;SDS011;5557;51.670;7.788;2023-03-23T07:57:47;3.70;;;1.87;;
11008;SDS011;5557;51.670;7.788;2023-03-23T08:00:14;2.50;;;1.70;;
11008;SDS011;5557;51.670;7.788;2023-03-23T08:02:44;3.10;;;1.80;;
11008;SDS011;5557;51.670;7.788;2023-03-23T08:05:10;7.13;;;2.30;;
11008;SDS011;5557;51.670;7.788;2023-03-23T08:07:38;1.50;;;1.30;;
11008;SDS011;5557;51.670;7.788;2023-03-23T08:10:05;2.23;;;1.80;;
11008;SDS011;5557;51.670;7.788;2023-03-23T08:12:37;6.93;;;1.73;;
11008;SDS011;5557;51.670;7.788;2023-03-23T08:15:08;3.90;;;1.30;;
11008;SDS011;5557;51.670;7.788;2023-03-23T08:17:37;5.80;;;2.00;;
11008;SDS011;5557;51.670;7.788;2023-03-23T08:20:05;3.03;;;1.80;;
11008;SDS011;5557;51.670;7.788;2023-03-23T08:22:35;7.20;;;1.53;;
11008;SDS011;5557;51.670;7.788;2023-03-23T08:25:04;1.53;;;1.43;;
11008;SDS011;5557;51.670;7.788;2023-03-23T08:27:31;3.27;;;1.40;;
11008;SDS011;5557;51.670;7.788;2023-03-23T08:29:57;1.30;;;1.20;;
11008;SDS011;5557;51.670;7.788;2023-03-23T08:32:23;3.27;;;1.50;;
11008;SDS011;5557;51.670;7.788;2023-03-23T08:34:49;4.13;;;1.37;;
11008;SDS011;5557;51.670;7.788;2023-03-23T08:37:15;3.10;;;1.87;;
11008;SDS011;5557;51.670;7.788;2023-03-23T08:39:41;6.17;;;1.73;;
11008;SDS011;5557;51.670;7.788;2023-03-23T08:42:10;4.00;;;1.97;;
11008;SDS011;5557;51.670;7.788;2023-03-23T08:44:36;2.60;;;1.40;;
11008;SDS011;5557;51.670;7.788;2023-03-23T08:47:02;8.73;;;1.70;;
11008;SDS011;5557;51.670;7.788;2023-03-23T08:49:30;2.17;;;1.37;;
11008;SDS011;5557;51.670;7.788;2023-03-23T08:52:02;2.00;;;1.20;;
11008;SDS011;5557;51.670;7.788;2023-03-23T08:54:28;2.90;;;1.70;;
11008;SDS011;5557;51.670;7.788;2023-03-23T08:57:00;1.60;;;1.50;;
11008;SDS011;5557;51.670;7.788;2023-03-23T08:59:27;3.20;;;1.30;;
11008;SDS011;5557;51.670;7.788;2023-03-23T09:01:53;4.60;;;1.90;;
11008;SDS011;5557;51.670;7.788;2023-03-23T09:04:19;4.70;;;2.37;;
11008;SDS011;5557;51.670;7.788;2023-03-23T09:06:46;3.63;;;1.37;;
11008;SDS011;5557;51.670;7.788;2023-03-23T09:09:12;4.07;;;1.70;;
11008;SDS011;5557;51.670;7.788;2023-03-23T09:11:38;5.53;;;1.80;;
11008;SDS011;5557;51.670;7.788;2023-03-23T09:14:05;5.77;;;1.90;;
11008;SDS011;5557;51.670;7.788;2023-03-23T09:16:32;6.13;;;1.47;;
11008;SDS011;5557;51.670;7.788;2023-03-23T09:18:59;1.73;;;1.40;;
11008;SDS011;5557;51.670;7.788;2023-03-23T09:21:26;5.53;;;1.50;;
11008;SDS011;5557;51.670;7.788;2023-03-23T09:23:53;5.37;;;1.63;;
11008;SDS011;5557;51.670;7.788;2023-03-23T09:26:23;7.73;;;1.60;;
11008;SDS011;5557;51.670;7.788;2023-03-23T09:28:51;3.10;;;1.33;;
11008;SDS011;5557;51.670;7.788;2023-03-23T09:31:17;3.37;;;1.57;;
11008;SDS011;5557;51.670;7.788;2023-03-23T09:33:47;3.00;;;1.50;;
11008;SDS011;5557;51.670;7.788;2023-03-23T09:36:17;3.43;;;1.60;;
11008;SDS011;5557;51.670;7.788;2023-03-23T09:38:46;1.50;;;1.30;;
11008;SDS011;5557;51.670;7.788;2023-03-23T09:41:22;9.70;;;1.57;;
11008;SDS011;5557;51.670;7.788;2023-03-23T09:44:17;5.30;;;1.77;;
11008;SDS011;5557;51.670;7.788;2023-03-23T09:46:55;3.80;;;1.50;;
11008;SDS011;5557;51.670;7.788;2023-03-23T09:49:27;4.83;;;1.93;;
11008;SDS011;5557;51.670;7.788;2023-03-23T09:52:10;2.80;;;1.40;;
11008;SDS011;5557;51.670;7.788;2023-03-23T09:54:44;4.60;;;2.20;;
11008;SDS011;5557;51.670;7.788;2023-03-23T10:00:12;3.43;;;2.30;;
11008;SDS011;5557;51.670;7.788;2023-03-23T10:03:18;7.00;;;2.10;;
11008;SDS011;5557;51.670;7.788;2023-03-23T10:05:50;3.77;;;2.17;;
11008;SDS011;5557;51.670;7.788;2023-03-23T10:08:26;3.30;;;1.70;;
11008;SDS011;5557;51.670;7.788;2023-03-23T10:14:07;7.93;;;1.90;;
11008;SDS011;5557;51.670;7.788;2023-03-23T10:17:33;5.20;;;1.70;;
11008;SDS011;5557;51.670;7.788;2023-03-23T10:20:24;8.47;;;2.93;;
11008;SDS011;5557;51.670;7.788;2023-03-23T10:23:02;8.40;;;1.60;;
11008;SDS011;5557;51.670;7.788;2023-03-23T10:25:56;3.53;;;1.67;;
11008;SDS011;5557;51.670;7.788;2023-03-23T10:28:36;6.87;;;2.23;;
11008;SDS011;5557;51.670;7.788;2023-03-23T10:31:18;5.70;;;1.70;;
11008;SDS011;5557;51.670;7.788;2023-03-23T10:33:49;9.90;;;1.60;;
11008;SDS011;5557;51.670;7.788;2023-03-23T10:41:44;2.50;;;0.80;;
11008;SDS011;5557;51.670;7.788;2023-03-23T10:44:24;2.30;;;0.80;;
11008;SDS011;5557;51.670;7.788;2023-03-23T10:46:55;2.80;;;1.00;;
11008;SDS011;5557;51.670;7.788;2023-03-23T10:49:35;3.73;;;1.33;;
11008;SDS011;5557;51.670;7.788;2023-03-23T10:55:03;1.00;;;0.70;;
11008;SDS011;5557;51.670;7.788;2023-03-23T10:57:39;0.90;;;0.67;;
11008;SDS011;5557;51.670;7.788;2023-03-23T11:00:17;2.63;;;1.17;;
11008;SDS011;5557;51.670;7.788;2023-03-23T11:02:58;2.70;;;1.13;;
11008;SDS011;5557;51.670;7.788;2023-03-23T11:08:35;1.10;;;0.80;;
11008;SDS011;5557;51.670;7.788;2023-03-23T11:11:24;2.03;;;1.23;;
11008;SDS011;5557;51.670;7.788;2023-03-23T11:14:01;4.90;;;1.30;;
11008;SDS011;5557;51.670;7.788;2023-03-23T11:16:42;4.13;;;1.00;;
11008;SDS011;5557;51.670;7.788;2023-03-23T11:19:22;1.43;;;0.83;;
11008;SDS011;5557;51.670;7.788;2023-03-23T11:22:05;2.13;;;1.07;;
11008;SDS011;5557;51.670;7.788;2023-03-23T11:24:34;1.27;;;1.07;;
11008;SDS011;5557;51.670;7.788;2023-03-23T11:27:17;2.37;;;1.10;;
11008;SDS011;5557;51.670;7.788;2023-03-23T11:29:49;1.30;;;1.10;;
11008;SDS011;5557;51.670;7.788;2023-03-23T11:32:28;3.40;;;0.83;;
11008;SDS011;5557;51.670;7.788;2023-03-23T11:34:59;5.80;;;1.00;;
11008;SDS011;5557;51.670;7.788;2023-03-23T11:40:20;3.40;;;1.47;;
11008;SDS011;5557;51.670;7.788;2023-03-23T11:43:01;2.20;;;1.30;;
11008;SDS011;5557;51.670;7.788;2023-03-23T11:48:33;2.33;;;1.50;;
11008;SDS011;5557;51.670;7.788;2023-03-23T11:54:26;2.53;;;1.67;;
11008;SDS011;5557;51.670;7.788;2023-03-23T11:57:09;2.80;;;1.20;;
11008;SDS011;5557;51.670;7.788;2023-03-23T11:59:36;3.13;;;1.63;;
11008;SDS011;5557;51.670;7.788;2023-03-23T12:11:22;1.73;;;0.70;;
11008;SDS011;5557;51.670;7.788;2023-03-23T12:22:42;5.33;;;1.27;;
11008;SDS011;5557;51.670;7.788;2023-03-23T12:37:01;1.17;;;1.07;;
11008;SDS011;5557;51.670;7.788;2023-03-23T12:43:13;1.80;;;1.30;;
11008;SDS011;5557;51.670;7.788;2023-03-23T12:48:56;2.97;;;1.43;;
11008;SDS011;5557;51.670;7.788;2023-03-23T12:51:40;3.73;;;2.07;;
11008;SDS011;5557;51.670;7.788;2023-03-23T12:54:50;2.00;;;1.90;;
11008;SDS011;5557;51.670;7.788;2023-03-23T12:57:22;2.47;;;2.27;;
11008;SDS011;5557;51.670;7.788;2023-03-23T12:59:59;2.23;;;2.13;;
11008;SDS011;5557;51.670;7.788;2023-03-23T13:02:41;3.53;;;2.67;;
11008;SDS011;5557;51.670;7.788;2023-03-23T13:11:41;3.50;;;3.30;;
11008;SDS011;5557;51.670;7.788;2023-03-23T13:17:05;4.40;;;4.20;;
11008;SDS011;5557;51.670;7.788;2023-03-23T13:23:25;6.00;;;5.40;;
11008;SDS011;5557;51.670;7.788;2023-03-23T13:26:08;6.57;;;5.37;;
11008;SDS011;5557;51.670;7.788;2023-03-23T13:31:21;6.90;;;6.30;;
11008;SDS011;5557;51.670;7.788;2023-03-23T13:33:57;8.50;;;5.30;;
11008;SDS011;5557;51.670;7.788;2023-03-23T13:38:57;6.10;;;5.23;;
11008;SDS011;5557;51.670;7.788;2023-03-23T13:41:25;4.83;;;4.50;;
11008;SDS011;5557;51.670;7.788;2023-03-23T13:43:52;3.63;;;3.30;;
11008;SDS011;5557;51.670;7.788;2023-03-23T13:46:29;2.97;;;2.70;;
11008;SDS011;5557;51.670;7.788;2023-03-23T13:51:52;3.07;;;2.50;;
11008;SDS011;5557;51.670;7.788;2023-03-23T13:54:29;3.93;;;2.57;;
11008;SDS011;5557;51.670;7.788;2023-03-23T13:56:59;2.40;;;2.30;;
11008;SDS011;5557;51.670;7.788;2023-03-23T13:59:35;2.53;;;2.30;;
11008;SDS011;5557;51.670;7.788;2023-03-23T14:07:56;2.43;;;2.10;;
11008;SDS011;5557;51.670;7.788;2023-03-23T14:10:32;2.30;;;2.10;;
11008;SDS011;5557;51.670;7.788;2023-03-23T14:13:28;2.00;;;1.90;;
11008;SDS011;5557;51.670;7.788;2023-03-23T14:16:21;5.90;;;1.67;;
11008;SDS011;5557;51.670;7.788;2023-03-23T14:19:02;2.17;;;1.90;;
11008;SDS011;5557;51.670;7.788;2023-03-23T14:21:40;1.77;;;1.67;;
11008;SDS011;5557;51.670;7.788;2023-03-23T14:24:11;3.10;;;2.00;;
11008;SDS011;5557;51.670;7.788;2023-03-23T14:26:44;3.33;;;1.93;;
11008;SDS011;5557;51.670;7.788;2023-03-23T14:29:11;2.60;;;1.40;;
11008;SDS011;5557;51.670;7.788;2023-03-23T14:31:38;2.17;;;1.20;;
11008;SDS011;5557;51.670;7.788;2023-03-23T14:34:15;4.93;;;1.50;;
11008;SDS011;5557;51.670;7.788;2023-03-23T14:36:43;2.60;;;2.40;;
11008;SDS011;5557;51.670;7.788;2023-03-23T14:39:24;3.57;;;1.20;;
11008;SDS011;5557;51.670;7.788;2023-03-23T14:41:53;2.43;;;1.70;;
11008;SDS011;5557;51.670;7.788;2023-03-23T14:44:28;2.13;;;1.40;;
11008;SDS011;5557;51.670;7.788;2023-03-23T14:46:56;6.90;;;1.47;;
11008;SDS011;5557;51.670;7.788;2023-03-23T14:49:28;3.00;;;2.00;;
11008;SDS011;5557;51.670;7.788;2023-03-23T14:52:02;2.13;;;1.60;;
11008;SDS011;5557;51.670;7.788;2023-03-23T14:54:33;1.63;;;1.20;;
11008;SDS011;5557;51.670;7.788;2023-03-23T14:57:02;1.60;;;1.50;;
11008;SDS011;5557;51.670;7.788;2023-03-23T14:59:36;6.53;;;1.67;;
11008;SDS011;5557;51.670;7.788;2023-03-23T15:02:04;2.70;;;1.83;;
11008;SDS011;5557;51.670;7.788;2023-03-23T15:04:31;1.80;;;1.50;;
11008;SDS011;5557;51.670;7.788;2023-03-23T15:07:00;5.07;;;2.60;;
11008;SDS011;5557;51.670;7.788;2023-03-23T15:09:29;5.43;;;2.03;;
11008;SDS011;5557;51.670;7.788;2023-03-23T15:11:56;6.97;;;2.97;;
11008;SDS011;5557;51.670;7.788;2023-03-23T15:14:30;3.67;;;2.80;;
11008;SDS011;5557;51.670;7.788;2023-03-23T15:17:24;3.60;;;3.40;;
11008;SDS011;5557;51.670;7.788;2023-03-23T15:19:52;3.80;;;3.50;;
11008;SDS011;5557;51.670;7.788;2023-03-23T15:22:26;6.57;;;6.03;;
11008;SDS011;5557;51.670;7.788;2023-03-23T15:25:09;5.50;;;5.20;;
11008;SDS011;5557;51.670;7.788;2023-03-23T15:27:44;5.60;;;5.10;;
11008;SDS011;5557;51.670;7.788;2023-03-23T15:30:28;6.03;;;5.50;;
11008;SDS011;5557;51.670;7.788;2023-03-23T15:33:01;5.20;;;4.70;;
11008;SDS011;5557;51.670;7.788;2023-03-23T15:35:35;6.00;;;5.43;;
11008;SDS011;5557;51.670;7.788;2023-03-23T15:38:12;6.00;;;5.50;;
11008;SDS011;5557;51.670;7.788;2023-03-23T15:40:43;6.90;;;5.87;;
11008;SDS011;5557;51.670;7.788;2023-03-23T15:43:18;7.10;;;5.20;;
11008;SDS011;5557;51.670;7.788;2023-03-23T15:45:58;5.57;;;5.17;;
11008;SDS011;5557;51.670;7.788;2023-03-23T15:48:31;6.70;;;5.40;;
11008;SDS011;5557;51.670;7.788;2023-03-23T15:50:59;6.53;;;5.70;;
11008;SDS011;5557;51.670;7.788;2023-03-23T15:53:32;11.13;;;4.80;;
11008;SDS011;5557;51.670;7.788;2023-03-23T15:56:00;5.70;;;5.13;;
11008;SDS011;5557;51.670;7.788;2023-03-23T15:58:28;6.10;;;4.83;;
11008;SDS011;5557;51.670;7.788;2023-03-23T16:00:56;6.53;;;5.67;;
11008;SDS011;5557;51.670;7.788;2023-03-23T16:03:25;9.30;;;5.50;;
11008;SDS011;5557;51.670;7.788;2023-03-23T16:05:57;4.07;;;3.77;;
11008;SDS011;5557;51.670;7.788;2023-03-23T16:08:28;9.63;;;4.33;;
11008;SDS011;5557;51.670;7.788;2023-03-23T16:10:55;4.43;;;3.93;;
11008;SDS011;5557;51.670;7.788;2023-03-23T16:13:22;6.63;;;4.67;;
11008;SDS011;5557;51.670;7.788;2023-03-23T16:15:49;7.97;;;4.40;;
11008;SDS011;5557;51.670;7.788;2023-03-23T16:18:17;6.20;;;3.90;;
11008;SDS011;5557;51.670;7.788;2023-03-23T16:20:47;6.10;;;2.50;;
11008;SDS011;5557;51.670;7.788;2023-03-23T16:23:15;8.07;;;4.40;;
11008;SDS011;5557;51.670;7.788;2023-03-23T16:25:42;3.97;;;3.07;;
11008;SDS011;5557;51.670;7.788;2023-03-23T16:28:12;7.23;;;3.60;;
11008;SDS011;5557;51.670;7.788;2023-03-23T16:30:41;3.10;;;2.50;;
11008;SDS011;5557;51.670;7.788;2023-03-23T16:33:09;4.90;;;2.03;;
11008;SDS011;5557;51.670;7.788;2023-03-23T16:35:36;3.27;;;2.57;;
11008;SDS011;5557;51.670;7.788;2023-03-23T16:38:03;3.43;;;2.00;;
11008;SDS011;5557;51.670;7.788;2023-03-23T16:40:35;2.10;;;2.00;;
11008;SDS011;5557;51.670;7.788;2023-03-23T16:43:02;2.53;;;2.00;;
11008;SDS011;5557;51.670;7.788;2023-03-23T16:45:34;4.43;;;2.07;;
11008;SDS011;5557;51.670;7.788;2023-03-23T16:48:02;2.30;;;1.30;;
11008;SDS011;5557;51.670;7.788;2023-03-23T16:50:30;2.00;;;1.33;;
11008;SDS011;5557;51.670;7.788;2023-03-23T16:52:58;4.27;;;1.60;;
11008;SDS011;5557;51.670;7.788;2023-03-23T16:55:25;3.40;;;1.83;;
11008;SDS011;5557;51.670;7.788;2023-03-23T16:57:53;3.47;;;1.67;;
11008;SDS011;5557;51.670;7.788;2023-03-23T17:00:38;3.60;;;1.70;;
11008;SDS011;5557;51.670;7.788;2023-03-23T17:03:06;3.63;;;1.80;;
11008;SDS011;5557;51.670;7.788;2023-03-23T17:05:34;4.37;;;2.00;;
11008;SDS011;5557;51.670;7.788;2023-03-23T17:08:02;5.13;;;2.10;;
11008;SDS011;5557;51.670;7.788;2023-03-23T17:10:30;2.70;;;2.20;;
11008;SDS011;5557;51.670;7.788;2023-03-23T17:12:57;2.33;;;2.13;;
11008;SDS011;5557;51.670;7.788;2023-03-23T17:15:24;5.80;;;2.90;;
11008;SDS011;5557;51.670;7.788;2023-03-23T17:21:14;4.27;;;3.13;;